createdAt,value
2022-09-12T00:01:13.070Z,14.93
2022-09-12T00:03:40.820Z,14.93
2022-09-12T00:06:10.559Z,14.97
2022-09-12T00:08:37.457Z,15.07
2022-09-12T00:11:12.217Z,15.08
2022-09-12T00:13:41.779Z,15.04
2022-09-12T00:16:15.992Z,14.98
2022-09-12T00:18:42.901Z,14.96
2022-09-12T00:21:09.488Z,15.00
2022-09-12T00:23:36.046Z,15.05
2022-09-12T00:26:06.266Z,14.95
2022-09-12T00:28:35.287Z,14.97
2022-09-12T00:31:05.855Z,14.87
2022-09-12T00:33:32.922Z,14.81
2022-09-12T00:35:59.453Z,14.84
2022-09-12T00:38:25.989Z,14.88
2022-09-12T00:40:52.526Z,14.90
2022-09-12T00:43:43.720Z,14.94
2022-09-12T00:46:27.529Z,14.88
2022-09-12T00:49:05.755Z,14.85
2022-09-12T00:51:36.025Z,14.82
2022-09-12T00:54:09.201Z,14.87
2022-09-12T00:56:39.226Z,14.96
2022-09-12T00:59:12.317Z,14.90
2022-09-12T01:01:42.045Z,14.82
2022-09-12T01:04:11.156Z,14.82
2022-09-12T01:06:41.599Z,14.72
2022-09-12T01:09:09.530Z,14.75
2022-09-12T01:11:39.034Z,14.82
2022-09-12T01:14:07.310Z,14.86
2022-09-12T01:16:38.234Z,14.83
2022-09-12T01:19:20.177Z,14.80
2022-09-12T01:22:25.247Z,14.85
2022-09-12T01:25:20.223Z,14.90
2022-09-12T01:28:24.030Z,14.94
2022-09-12T01:31:05.061Z,14.84
2022-09-12T01:33:31.686Z,14.80
2022-09-12T01:36:19.447Z,14.82
2022-09-12T01:39:00.140Z,14.82
2022-09-12T01:41:39.022Z,14.80
2022-09-12T01:44:22.670Z,14.81
2022-09-12T01:47:02.379Z,14.83
2022-09-12T01:49:51.995Z,14.80
2022-09-12T01:52:27.615Z,14.75
2022-09-12T01:55:18.150Z,14.80
2022-09-12T01:57:59.219Z,14.83
2022-09-12T02:00:26.232Z,14.76
2022-09-12T02:03:04.977Z,14.74
2022-09-12T02:05:36.027Z,14.72
2022-09-12T02:08:19.187Z,14.63
2022-09-12T02:10:54.113Z,14.43
2022-09-12T02:13:33.109Z,14.22
2022-09-12T02:16:09.504Z,14.16
2022-09-12T02:18:39.873Z,14.24
2022-09-12T02:21:07.728Z,14.28
2022-09-12T02:23:38.806Z,14.18
2022-09-12T02:26:13.100Z,14.19
2022-09-12T02:28:43.062Z,14.31
2022-09-12T02:31:09.573Z,14.37
2022-09-12T02:33:49.217Z,14.37
2022-09-12T02:36:28.660Z,14.39
2022-09-12T02:38:55.599Z,14.43
2022-09-12T02:41:22.788Z,14.45
2022-09-12T02:43:51.546Z,14.46
2022-09-12T02:46:28.712Z,14.48
2022-09-12T02:48:56.489Z,14.50
2022-09-12T02:51:23.907Z,14.53
2022-09-12T02:53:50.990Z,14.55
2022-09-12T02:56:25.776Z,14.52
2022-09-12T02:58:53.922Z,14.50
2022-09-12T03:01:58.049Z,14.41
2022-09-12T03:04:43.255Z,14.31
2022-09-12T03:07:42.545Z,14.33
2022-09-12T03:10:28.052Z,14.25
2022-09-12T03:13:03.521Z,14.10
2022-09-12T03:15:54.773Z,14.05
2022-09-12T03:18:58.413Z,14.11
2022-09-12T03:21:43.190Z,14.14
2022-09-12T03:24:27.015Z,14.09
2022-09-12T03:27:13.912Z,14.07
2022-09-12T03:29:42.110Z,14.06
2022-09-12T03:32:08.658Z,14.02
2022-09-12T03:34:35.280Z,13.95
2022-09-12T03:37:02.333Z,13.82
2022-09-12T03:39:28.912Z,13.78
2022-09-12T03:41:55.918Z,13.81
2022-09-12T03:44:22.960Z,13.76
2022-09-12T03:46:49.522Z,13.72
2022-09-12T03:49:16.319Z,13.65
2022-09-12T03:51:43.224Z,13.62
2022-09-12T03:54:10.245Z,13.65
2022-09-12T03:56:37.327Z,13.62
2022-09-12T03:59:07.030Z,13.66
2022-09-12T04:01:34.388Z,13.52
2022-09-12T04:04:01.152Z,13.25
2022-09-12T04:06:27.726Z,13.14
2022-09-12T04:08:55.530Z,13.07
2022-09-12T04:11:23.808Z,13.07
2022-09-12T04:13:50.528Z,13.12
2022-09-12T04:16:17.910Z,13.17
2022-09-12T04:18:45.612Z,13.17
2022-09-12T04:21:18.047Z,13.17
2022-09-12T04:23:45.084Z,13.21
2022-09-12T04:26:13.629Z,13.29
2022-09-12T04:28:41.012Z,13.30
2022-09-12T04:31:18.061Z,13.35
2022-09-12T04:33:45.623Z,13.38
2022-09-12T04:36:16.612Z,13.40
2022-09-12T04:38:45.114Z,13.36
2022-09-12T04:41:18.538Z,13.34
2022-09-12T04:43:48.939Z,13.38
2022-09-12T04:46:20.274Z,13.45
2022-09-12T04:48:47.959Z,13.47
2022-09-12T04:51:25.969Z,13.48
2022-09-12T04:53:54.264Z,13.48
2022-09-12T04:56:21.772Z,13.48
2022-09-12T04:58:48.859Z,13.49
2022-09-12T05:01:18.493Z,13.54
2022-09-12T05:03:46.540Z,13.54
2022-09-12T05:06:16.494Z,13.59
2022-09-12T05:08:43.431Z,13.61
2022-09-12T05:11:15.697Z,13.65
2022-09-12T05:13:42.801Z,13.65
2022-09-12T05:16:12.555Z,13.72
2022-09-12T05:18:39.188Z,13.68
2022-09-12T05:21:09.306Z,13.71
2022-09-12T05:23:36.936Z,13.70
2022-09-12T05:26:05.428Z,13.67
2022-09-12T05:28:35.341Z,13.70
2022-09-12T05:31:05.905Z,13.77
2022-09-12T05:33:34.411Z,13.80
2022-09-12T05:36:02.048Z,13.68
2022-09-12T05:38:29.252Z,13.46
2022-09-12T05:41:06.140Z,13.41
2022-09-12T05:43:37.994Z,13.60
2022-09-12T05:46:10.421Z,13.73
2022-09-12T05:48:37.671Z,13.67
2022-09-12T05:51:12.518Z,13.69
2022-09-12T05:53:40.856Z,13.71
2022-09-12T05:56:11.846Z,13.61
2022-09-12T05:58:40.531Z,13.48
2022-09-12T06:01:16.144Z,13.52
2022-09-12T06:03:45.286Z,13.72
2022-09-12T06:06:13.687Z,13.84
2022-09-12T06:08:45.799Z,14.01
2022-09-12T06:11:15.962Z,14.19
2022-09-12T06:13:43.149Z,14.27
2022-09-12T06:16:14.332Z,14.15
2022-09-12T06:18:41.859Z,14.10
2022-09-12T06:21:10.842Z,14.15
2022-09-12T06:23:38.469Z,14.27
2022-09-12T06:26:07.375Z,14.43
2022-09-12T06:28:39.913Z,14.48
2022-09-12T06:31:07.996Z,14.44
2022-09-12T06:33:36.264Z,14.48
2022-09-12T06:36:12.242Z,14.43
2022-09-12T06:38:40.362Z,14.54
2022-09-12T06:41:09.387Z,14.67
2022-09-12T06:43:36.179Z,14.78
2022-09-12T06:46:03.847Z,14.88
2022-09-12T06:48:30.777Z,14.99
2022-09-12T06:51:00.249Z,15.10
2022-09-12T06:53:28.892Z,15.15
2022-09-12T06:56:00.572Z,15.28
2022-09-12T06:58:28.764Z,15.38
2022-09-12T07:01:07.170Z,15.45
2022-09-12T07:03:35.025Z,15.51
2022-09-12T07:06:05.422Z,15.58
2022-09-12T07:08:32.818Z,15.73
2022-09-12T07:11:07.700Z,15.77
2022-09-12T07:13:34.326Z,15.86
2022-09-12T07:16:05.484Z,15.98
2022-09-12T07:18:35.088Z,16.01
2022-09-12T07:21:02.671Z,16.11
2022-09-12T07:23:32.448Z,16.19
2022-09-12T07:26:00.970Z,16.28
2022-09-12T07:28:30.454Z,16.44
2022-09-12T07:30:58.031Z,16.59
2022-09-12T07:33:27.496Z,16.71
2022-09-12T07:35:54.521Z,16.78
2022-09-12T07:38:22.151Z,16.84
2022-09-12T07:40:48.854Z,16.97
2022-09-12T07:43:15.386Z,16.92
2022-09-12T07:45:42.687Z,16.95
2022-09-12T07:48:09.871Z,16.92
2022-09-12T07:50:36.728Z,16.95
2022-09-12T07:53:06.973Z,17.16
2022-09-12T07:55:33.532Z,17.31
2022-09-12T07:58:00.719Z,17.35
2022-09-12T08:00:35.656Z,17.48
2022-09-12T08:03:05.838Z,17.60
2022-09-12T08:05:32.460Z,17.68
2022-09-12T08:07:59.002Z,17.84
2022-09-12T08:10:25.645Z,17.84
2022-09-12T08:12:52.293Z,17.98
2022-09-12T08:15:20.058Z,17.95
2022-09-12T08:17:46.702Z,17.96
2022-09-12T08:20:13.833Z,17.99
2022-09-12T08:22:40.701Z,18.13
2022-09-12T08:25:08.673Z,18.17
2022-09-12T08:27:35.265Z,18.10
2022-09-12T08:30:02.157Z,18.04
2022-09-12T08:32:28.817Z,18.03
2022-09-12T08:34:55.411Z,18.26
2022-09-12T08:37:21.936Z,18.32
2022-09-12T08:39:48.529Z,18.42
2022-09-12T08:42:33.677Z,18.06
2022-09-12T08:45:17.686Z,17.93
2022-09-12T08:47:46.864Z,18.20
2022-09-12T08:50:21.042Z,18.44
2022-09-12T08:52:58.828Z,18.55
2022-09-12T08:55:35.304Z,18.53
2022-09-12T08:58:12.059Z,18.66
2022-09-12T09:00:46.527Z,18.82
2022-09-12T09:03:36.129Z,18.84
2022-09-12T09:06:24.289Z,18.87
2022-09-12T09:09:04.964Z,19.00
2022-09-12T09:11:34.185Z,19.11
2022-09-12T09:14:28.467Z,19.28
2022-09-12T09:16:57.610Z,19.11
2022-09-12T09:19:38.953Z,18.82
2022-09-12T09:22:14.607Z,18.69
2022-09-12T09:24:50.986Z,18.83
2022-09-12T09:27:47.453Z,18.75
2022-09-12T09:30:21.307Z,18.80
2022-09-12T09:32:52.841Z,18.61
2022-09-12T09:35:36.328Z,18.74
2022-09-12T09:38:23.369Z,18.95
2022-09-12T09:41:11.627Z,19.04
2022-09-12T09:43:38.881Z,19.23
2022-09-12T09:46:08.064Z,19.48
2022-09-12T09:48:42.254Z,19.53
2022-09-12T09:51:09.366Z,19.64
2022-09-12T09:53:44.118Z,19.72
2022-09-12T09:56:26.783Z,19.90
2022-09-12T09:58:53.997Z,20.07
2022-09-12T10:01:21.165Z,20.23
2022-09-12T10:03:53.670Z,20.17
2022-09-12T10:06:23.116Z,20.25
2022-09-12T10:08:50.372Z,20.53
2022-09-12T10:11:20.760Z,20.79
2022-09-12T10:13:50.189Z,20.86
2022-09-12T10:16:23.055Z,20.69
2022-09-12T10:18:52.330Z,20.70
2022-09-12T10:21:30.986Z,20.70
2022-09-12T10:24:16.813Z,20.31
2022-09-12T10:26:52.254Z,20.46
2022-09-12T10:29:29.958Z,20.72
2022-09-12T10:31:59.748Z,19.86
2022-09-12T10:34:26.514Z,20.18
2022-09-12T10:36:59.547Z,20.58
2022-09-12T10:39:26.623Z,20.69
2022-09-12T10:41:53.291Z,20.31
2022-09-12T10:44:31.801Z,20.05
2022-09-12T10:47:00.306Z,20.08
2022-09-12T10:49:30.030Z,19.87
2022-09-12T10:51:59.612Z,19.41
2022-09-12T10:54:28.022Z,19.75
2022-09-12T10:57:08.267Z,19.87
2022-09-12T11:00:05.499Z,20.09
2022-09-12T11:02:34.846Z,20.25
2022-09-12T11:05:32.166Z,20.28
2022-09-12T11:08:35.403Z,20.28
2022-09-12T11:11:15.133Z,20.51
2022-09-12T11:14:19.517Z,20.77
2022-09-12T11:16:54.241Z,20.81
2022-09-12T11:19:59.459Z,21.32
2022-09-12T11:22:59.534Z,21.58
2022-09-12T11:25:39.553Z,21.08
2022-09-12T11:28:55.852Z,20.97
2022-09-12T11:31:40.264Z,21.56
2022-09-12T11:34:12.116Z,21.65
2022-09-12T11:37:21.165Z,21.37
2022-09-12T11:39:55.637Z,21.05
2022-09-12T11:42:37.277Z,20.42
2022-09-12T11:45:15.240Z,20.38
2022-09-12T11:47:46.893Z,20.28
2022-09-12T11:50:31.745Z,20.35
2022-09-12T11:53:06.331Z,20.31
2022-09-12T11:55:49.852Z,20.16
2022-09-12T11:58:22.212Z,20.37
2022-09-12T12:00:54.016Z,20.76
2022-09-12T12:03:26.676Z,20.54
2022-09-12T12:06:07.060Z,20.20
2022-09-12T12:08:40.395Z,20.24
2022-09-12T12:11:08.595Z,20.48
2022-09-12T12:13:46.624Z,20.25
2022-09-12T12:16:21.452Z,20.22
2022-09-12T12:18:55.957Z,19.90
2022-09-12T12:21:29.085Z,20.12
2022-09-12T12:24:26.292Z,19.98
2022-09-12T12:27:21.132Z,19.64
2022-09-12T12:29:48.031Z,19.66
2022-09-12T12:32:22.286Z,20.00
2022-09-12T12:34:49.054Z,20.17
2022-09-12T12:37:21.822Z,19.90
2022-09-12T12:40:01.335Z,20.34
2022-09-12T12:42:31.162Z,20.13
2022-09-12T12:44:58.885Z,20.44
2022-09-12T12:47:37.729Z,20.22
2022-09-12T12:50:10.231Z,20.43
2022-09-12T12:53:00.739Z,20.42
2022-09-12T12:55:52.841Z,20.15
2022-09-12T12:58:29.140Z,20.36
2022-09-12T13:01:18.978Z,20.28
2022-09-12T13:03:53.493Z,20.38
2022-09-12T13:06:32.550Z,20.23
2022-09-12T13:09:04.295Z,20.01
2022-09-12T13:11:37.289Z,19.33
2022-09-12T13:14:25.287Z,19.97
2022-09-12T13:16:59.780Z,20.19
2022-09-12T13:19:36.712Z,20.13
2022-09-12T13:22:09.450Z,19.68
2022-09-12T13:24:49.287Z,20.01
2022-09-12T13:27:24.481Z,19.87
2022-09-12T13:30:14.940Z,19.65
2022-09-12T13:32:43.867Z,19.94
2022-09-12T13:35:27.483Z,20.04
2022-09-12T13:38:21.054Z,19.78
2022-09-12T13:41:08.040Z,19.33
2022-09-12T13:43:41.526Z,19.17
2022-09-12T13:46:10.972Z,19.54
2022-09-12T13:48:39.522Z,19.51
2022-09-12T13:51:06.902Z,19.72
2022-09-12T13:53:44.565Z,19.10
2022-09-12T13:56:18.635Z,18.65
2022-09-12T13:58:54.987Z,18.60
2022-09-12T14:01:22.555Z,18.87
2022-09-12T14:04:13.480Z,19.18
2022-09-12T14:06:49.726Z,19.46
2022-09-12T14:09:25.286Z,19.65
2022-09-12T14:11:53.058Z,19.29
2022-09-12T14:14:43.743Z,19.23
2022-09-12T14:17:23.537Z,18.70
2022-09-12T14:19:52.736Z,19.20
2022-09-12T14:22:19.595Z,19.55
2022-09-12T14:24:50.400Z,19.46
2022-09-12T14:27:30.310Z,19.56
2022-09-12T14:30:07.599Z,19.66
2022-09-12T14:32:36.512Z,19.57
2022-09-12T14:35:12.462Z,19.71
2022-09-12T14:37:39.906Z,19.95
2022-09-12T14:40:21.116Z,19.12
2022-09-12T14:42:52.681Z,19.05
2022-09-12T14:45:30.182Z,19.54
2022-09-12T14:47:58.555Z,19.32
2022-09-12T14:50:29.778Z,19.02
2022-09-12T14:53:03.955Z,19.18
2022-09-12T14:55:33.803Z,19.09
2022-09-12T14:58:18.595Z,19.29
2022-09-12T15:00:56.071Z,19.17
2022-09-12T15:03:30.841Z,19.14
2022-09-12T15:06:05.173Z,19.28
2022-09-12T15:08:32.315Z,18.45
2022-09-12T15:10:59.904Z,18.61
2022-09-12T15:13:28.580Z,19.17
2022-09-12T15:15:57.310Z,18.87
2022-09-12T15:18:29.141Z,18.99
2022-09-12T15:21:01.234Z,18.76
2022-09-12T15:23:48.322Z,18.53
2022-09-12T15:26:21.785Z,18.39
2022-09-12T15:28:49.945Z,18.44
2022-09-12T15:31:28.764Z,19.10
2022-09-12T15:33:57.054Z,19.28
2022-09-12T15:36:24.857Z,19.35
2022-09-12T15:38:52.809Z,18.79
2022-09-12T15:41:32.031Z,18.70
2022-09-12T15:43:59.014Z,19.27
2022-09-12T15:46:26.033Z,18.90
2022-09-12T15:48:52.778Z,18.47
2022-09-12T15:51:21.584Z,18.54
2022-09-12T15:53:49.559Z,18.56
2022-09-12T15:56:18.111Z,18.14
2022-09-12T15:58:57.665Z,18.63
2022-09-12T16:01:25.414Z,18.54
2022-09-12T16:03:52.053Z,18.37
2022-09-12T16:06:18.607Z,18.58
2022-09-12T16:08:46.181Z,18.86
2022-09-12T16:11:22.321Z,18.82
2022-09-12T16:13:49.352Z,18.76
2022-09-12T16:16:16.001Z,18.50
2022-09-12T16:18:42.937Z,18.57
2022-09-12T16:21:14.272Z,18.65
2022-09-12T16:23:46.621Z,18.42
2022-09-12T16:26:13.364Z,18.70
2022-09-12T16:28:40.034Z,18.74
2022-09-12T16:31:08.658Z,18.85
2022-09-12T16:33:37.290Z,18.75
2022-09-12T16:36:12.530Z,18.79
2022-09-12T16:38:44.045Z,18.72
2022-09-12T16:41:11.307Z,18.65
2022-09-12T16:43:38.319Z,18.20
2022-09-12T16:46:12.450Z,18.27
2022-09-12T16:48:49.298Z,17.99
2022-09-12T16:51:21.925Z,18.15
2022-09-12T16:53:49.115Z,18.11
2022-09-12T16:56:16.217Z,18.10
2022-09-12T16:58:43.678Z,18.24
2022-09-12T17:01:17.700Z,18.16
2022-09-12T17:03:44.954Z,18.17
2022-09-12T17:06:18.032Z,18.18
2022-09-12T17:08:47.825Z,18.16
2022-09-12T17:11:20.324Z,18.20
2022-09-12T17:14:07.819Z,18.15
2022-09-12T17:16:37.847Z,18.11
2022-09-12T17:19:06.232Z,18.02
2022-09-12T17:21:33.700Z,18.02
2022-09-12T17:24:00.292Z,17.82
2022-09-12T17:26:31.928Z,18.05
2022-09-12T17:28:58.555Z,18.06
2022-09-12T17:31:25.199Z,17.83
2022-09-12T17:33:59.549Z,17.68
2022-09-12T17:36:26.855Z,17.84
2022-09-12T17:38:54.227Z,17.77
2022-09-12T17:41:23.481Z,17.78
2022-09-12T17:43:58.481Z,18.01
2022-09-12T17:46:37.761Z,18.01
2022-09-12T17:49:08.914Z,18.05
2022-09-12T17:51:38.326Z,18.07
2022-09-12T17:54:11.923Z,18.06
2022-09-12T17:56:39.339Z,17.88
2022-09-12T17:59:07.649Z,17.34
2022-09-12T18:01:53.367Z,17.11
2022-09-12T18:04:20.285Z,17.03
2022-09-12T18:06:50.385Z,17.23
2022-09-12T18:09:19.355Z,17.25
2022-09-12T18:11:46.823Z,17.61
2022-09-12T18:14:14.580Z,17.67
2022-09-12T18:16:43.092Z,17.62
2022-09-12T18:19:11.440Z,17.43
2022-09-12T18:21:38.205Z,17.18
2022-09-12T18:24:07.664Z,16.61
2022-09-12T18:26:34.533Z,16.59
2022-09-12T18:29:01.173Z,16.39
2022-09-12T18:31:31.247Z,16.75
2022-09-12T18:34:00.406Z,17.05
2022-09-12T18:36:27.777Z,17.36
2022-09-12T18:38:54.475Z,17.52
2022-09-12T18:41:23.750Z,17.52
2022-09-12T18:43:58.046Z,17.47
2022-09-12T18:46:25.770Z,17.39
2022-09-12T18:48:55.365Z,17.49
2022-09-12T18:51:31.276Z,17.49
2022-09-12T18:54:00.209Z,17.49
2022-09-12T18:56:35.669Z,17.52
2022-09-12T18:59:04.992Z,17.53
2022-09-12T19:01:34.548Z,17.49
2022-09-12T19:04:04.564Z,17.48
2022-09-12T19:06:34.086Z,17.46
2022-09-12T19:09:06.647Z,17.47
2022-09-12T19:11:35.724Z,17.44
2022-09-12T19:14:05.740Z,17.42
2022-09-12T19:16:32.934Z,17.42
2022-09-12T19:18:59.808Z,17.37
2022-09-12T19:21:28.929Z,17.32
2022-09-12T19:23:58.434Z,17.32
2022-09-12T19:26:29.779Z,17.28
2022-09-12T19:28:56.848Z,17.27
2022-09-12T19:31:24.376Z,17.28
2022-09-12T19:33:52.393Z,17.32
2022-09-12T19:36:43.797Z,17.37
2022-09-12T19:39:08.770Z,17.34
2022-09-12T19:41:35.869Z,17.38
2022-09-12T19:44:03.645Z,17.36
2022-09-12T19:46:30.269Z,17.29
2022-09-12T19:48:56.999Z,17.28
2022-09-12T19:51:26.838Z,17.32
2022-09-12T19:53:53.934Z,17.30
2022-09-12T19:56:21.030Z,17.34
2022-09-12T19:58:53.448Z,17.31
2022-09-12T20:01:28.295Z,17.36
2022-09-12T20:03:58.930Z,17.37
2022-09-12T20:06:26.539Z,17.39
2022-09-12T20:08:53.600Z,17.37
2022-09-12T20:11:23.477Z,17.38
2022-09-12T20:13:50.251Z,17.35
2022-09-12T20:16:24.486Z,17.36
2022-09-12T20:19:00.001Z,17.34
2022-09-12T20:21:32.786Z,17.32
2022-09-12T20:24:07.839Z,17.32
2022-09-12T20:26:34.743Z,17.30
2022-09-12T20:29:02.110Z,17.25
2022-09-12T20:31:29.143Z,17.18
2022-09-12T20:33:57.192Z,17.19
2022-09-12T20:36:23.985Z,17.18
2022-09-12T20:39:14.660Z,17.19
2022-09-12T20:41:41.516Z,17.20
2022-09-12T20:44:08.168Z,17.17
2022-09-12T20:46:35.028Z,17.15
2022-09-12T20:49:02.234Z,17.15
2022-09-12T20:51:30.314Z,17.17
2022-09-12T20:53:59.148Z,17.16
2022-09-12T20:56:27.245Z,17.15
2022-09-12T20:58:58.089Z,17.16
2022-09-12T21:01:29.662Z,17.15
2022-09-12T21:03:58.308Z,17.14
2022-09-12T21:06:24.938Z,17.12
2022-09-12T21:08:51.652Z,17.08
2022-09-12T21:11:20.505Z,17.09
2022-09-12T21:13:47.520Z,17.08
2022-09-12T21:16:18.926Z,17.13
2022-09-12T21:18:53.921Z,17.14
2022-09-12T21:21:22.554Z,17.15
2022-09-12T21:23:54.038Z,17.16
2022-09-12T21:26:20.734Z,17.16
2022-09-12T21:28:49.885Z,17.24
2022-09-12T21:31:19.330Z,17.24
2022-09-12T21:33:51.666Z,17.33
2022-09-12T21:36:18.341Z,17.32
2022-09-12T21:38:45.161Z,17.30
2022-09-12T21:41:16.279Z,17.26
2022-09-12T21:43:46.534Z,17.26
2022-09-12T21:46:13.395Z,17.34
2022-09-12T21:48:43.445Z,17.37
2022-09-12T21:51:12.606Z,17.36
2022-09-12T21:53:39.268Z,17.36
2022-09-12T21:56:08.092Z,17.41
2022-09-12T21:58:38.125Z,17.41
2022-09-12T22:01:06.236Z,17.42
2022-09-12T22:03:34.658Z,17.42
2022-09-12T22:06:03.872Z,17.41
2022-09-12T22:08:34.881Z,17.44
2022-09-12T22:11:09.472Z,17.47
2022-09-12T22:13:39.356Z,17.50
2022-09-12T22:16:08.523Z,17.49
2022-09-12T22:18:36.631Z,17.52
2022-09-12T22:21:07.212Z,17.51
2022-09-12T22:23:54.842Z,17.52
2022-09-12T22:26:24.641Z,17.49
2022-09-12T22:28:51.394Z,17.48
2022-09-12T22:31:18.803Z,17.48
2022-09-12T22:33:48.696Z,17.46
2022-09-12T22:36:15.417Z,17.44
2022-09-12T22:38:41.957Z,17.48
2022-09-12T22:41:11.460Z,17.51
2022-09-12T22:43:38.055Z,17.45
2022-09-12T22:46:10.122Z,17.49
2022-09-12T22:48:37.742Z,17.51
2022-09-12T22:51:05.425Z,17.55
2022-09-12T22:53:32.069Z,17.52
2022-09-12T22:55:58.615Z,17.56
2022-09-12T22:58:25.150Z,17.64
2022-09-12T23:00:52.271Z,17.63
2022-09-12T23:03:20.376Z,17.67
2022-09-12T23:05:48.015Z,17.68
2022-09-12T23:08:16.013Z,17.70
2022-09-12T23:10:43.942Z,17.68
2022-09-12T23:13:11.122Z,17.58
2022-09-12T23:15:37.850Z,17.48
2022-09-12T23:18:05.326Z,17.51
2022-09-12T23:20:32.084Z,17.60
2022-09-12T23:22:58.657Z,17.63
2022-09-12T23:25:26.316Z,17.60
2022-09-12T23:27:53.532Z,17.70
2022-09-12T23:30:21.398Z,17.64
2022-09-12T23:32:49.120Z,17.64
2022-09-12T23:35:20.635Z,17.75
2022-09-12T23:37:47.702Z,17.70
2022-09-12T23:40:14.504Z,17.72
2022-09-12T23:42:41.232Z,17.69
2022-09-12T23:45:08.125Z,17.52
2022-09-12T23:47:34.653Z,17.58
2022-09-12T23:50:01.227Z,17.56
2022-09-12T23:52:27.907Z,17.65
2022-09-12T23:54:54.446Z,17.55
2022-09-12T23:57:21.006Z,17.57
2022-09-12T23:59:47.577Z,17.44
